createdAt,value
2023-03-27T00:00:43.818Z,20.46
2023-03-27T00:01:43.833Z,20.57
2023-03-27T00:02:43.871Z,20.57
2023-03-27T00:03:43.911Z,20.52
2023-03-27T00:04:43.761Z,20.57
2023-03-27T00:05:43.751Z,20.95
2023-03-27T00:06:43.733Z,20.52
2023-03-27T00:07:43.717Z,20.57
2023-03-27T00:08:43.706Z,20.46
2023-03-27T00:09:43.699Z,20.36
2023-03-27T00:10:43.687Z,20.73
2023-03-27T00:11:43.674Z,20.14
2023-03-27T00:12:43.660Z,20.68
2023-03-27T00:13:49.404Z,20.41
2023-03-27T00:14:44.818Z,20.68
2023-03-27T00:15:43.626Z,20.52
2023-03-27T00:16:43.659Z,20.57
2023-03-27T00:17:43.626Z,20.57
2023-03-27T00:18:43.603Z,20.52
2023-03-27T00:19:43.560Z,20.52
2023-03-27T00:20:43.543Z,20.57
2023-03-27T00:21:43.539Z,20.52
2023-03-27T00:22:43.521Z,20.79
2023-03-27T00:23:43.517Z,20.57
2023-03-27T00:24:43.496Z,20.52
2023-03-27T00:25:43.491Z,20.46
2023-03-27T00:26:43.469Z,20.57
2023-03-27T00:27:43.468Z,20.73
2023-03-27T00:28:43.451Z,20.57
2023-03-27T00:29:43.431Z,20.57
2023-03-27T00:30:43.445Z,20.57
2023-03-27T00:31:43.407Z,20.57
2023-03-27T00:32:43.453Z,20.57
2023-03-27T00:33:43.384Z,20.57
2023-03-27T00:34:43.406Z,20.46
2023-03-27T00:35:43.768Z,20.68
2023-03-27T00:36:43.331Z,20.52
2023-03-27T00:37:43.324Z,20.68
2023-03-27T00:38:43.305Z,20.57
2023-03-27T00:39:43.650Z,20.57
2023-03-27T00:40:43.310Z,20.68
2023-03-27T00:41:43.267Z,20.52
2023-03-27T00:42:43.250Z,20.68
2023-03-27T00:43:43.246Z,20.36
2023-03-27T00:44:43.225Z,20.57
2023-03-27T00:45:43.324Z,20.68
2023-03-27T00:46:43.265Z,20.57
2023-03-27T00:47:43.267Z,20.52
2023-03-27T00:48:43.178Z,20.57
2023-03-27T00:49:43.164Z,20.68
2023-03-27T00:50:43.168Z,20.68
2023-03-27T00:51:43.138Z,20.46
2023-03-27T00:52:43.159Z,20.57
2023-03-27T00:53:43.112Z,20.36
2023-03-27T00:54:43.096Z,20.57
2023-03-27T00:55:43.086Z,20.36
2023-03-27T00:56:43.109Z,20.68
2023-03-27T00:57:43.086Z,20.79
2023-03-27T00:58:43.085Z,20.52
2023-03-27T00:59:43.041Z,20.57
2023-03-27T01:00:43.015Z,20.68
2023-03-27T01:01:43.041Z,20.57
2023-03-27T01:02:43.056Z,20.57
2023-03-27T01:03:43.065Z,20.46
2023-03-27T01:04:42.967Z,20.57
2023-03-27T01:05:42.952Z,20.57
2023-03-27T01:06:42.960Z,20.68
2023-03-27T01:07:42.924Z,20.46
2023-03-27T01:08:43.937Z,20.57
2023-03-27T01:09:42.896Z,20.41
2023-03-27T01:10:42.885Z,20.62
2023-03-27T01:11:42.879Z,20.57
2023-03-27T01:12:42.856Z,20.62
2023-03-27T01:13:42.846Z,20.57
2023-03-27T01:14:42.828Z,20.30
2023-03-27T01:15:42.825Z,20.46
2023-03-27T01:16:42.796Z,20.52
2023-03-27T01:17:42.887Z,20.62
2023-03-27T01:18:42.764Z,20.73
2023-03-27T01:19:42.762Z,20.68
2023-03-27T01:20:42.738Z,20.41
2023-03-27T01:21:42.727Z,20.52
2023-03-27T01:22:42.733Z,20.57
2023-03-27T01:23:59.763Z,20.46
2023-03-27T01:24:43.718Z,20.52
2023-03-27T01:25:42.681Z,20.52
2023-03-27T01:26:42.669Z,20.52
2023-03-27T01:27:42.649Z,20.52
2023-03-27T01:28:42.643Z,20.57
2023-03-27T01:29:42.617Z,20.57
2023-03-27T01:30:42.608Z,20.25
2023-03-27T01:31:42.622Z,20.62
2023-03-27T01:32:42.596Z,20.68
2023-03-27T01:33:42.568Z,20.62
2023-03-27T01:34:42.909Z,20.57
2023-03-27T01:35:42.555Z,20.62
2023-03-27T01:36:42.521Z,20.62
2023-03-27T01:37:42.509Z,20.20
2023-03-27T01:38:42.521Z,20.57
2023-03-27T01:39:42.483Z,20.62
2023-03-27T01:40:42.472Z,20.52
2023-03-27T01:41:42.464Z,20.57
2023-03-27T01:42:42.450Z,20.57
2023-03-27T01:43:42.437Z,20.79
2023-03-27T01:44:45.280Z,20.62
2023-03-27T01:45:42.398Z,20.57
2023-03-27T01:46:42.423Z,20.57
2023-03-27T01:47:42.411Z,20.89
2023-03-27T01:48:42.365Z,20.57
2023-03-27T01:49:42.343Z,20.95
2023-03-27T01:50:42.342Z,20.52
2023-03-27T01:51:42.321Z,20.62
2023-03-27T01:52:42.310Z,20.95
2023-03-27T01:53:42.302Z,20.95
2023-03-27T01:54:42.313Z,20.68
2023-03-27T01:55:42.265Z,20.95
2023-03-27T01:56:42.277Z,20.89
2023-03-27T01:57:49.233Z,20.84
2023-03-27T01:58:43.251Z,20.89
2023-03-27T01:59:42.214Z,21.00
2023-03-27T02:00:51.921Z,21.00
2023-03-27T02:01:43.343Z,21.00
2023-03-27T02:02:42.203Z,20.95
2023-03-27T02:03:42.155Z,20.62
2023-03-27T02:04:42.174Z,20.95
2023-03-27T02:05:42.129Z,20.95
2023-03-27T02:06:42.120Z,21.05
2023-03-27T02:07:42.106Z,21.00
2023-03-27T02:08:42.101Z,21.27
2023-03-27T02:09:42.081Z,20.73
2023-03-27T02:10:42.084Z,20.95
2023-03-27T02:11:42.044Z,20.62
2023-03-27T02:12:42.038Z,20.73
2023-03-27T02:13:42.021Z,20.95
2023-03-27T02:14:42.007Z,20.89
2023-03-27T02:15:41.998Z,20.89
2023-03-27T02:16:42.012Z,20.89
2023-03-27T02:17:42.000Z,20.95
2023-03-27T02:18:41.955Z,20.89
2023-03-27T02:19:42.299Z,21.16
2023-03-27T02:20:41.930Z,21.00
2023-03-27T02:21:41.920Z,20.79
2023-03-27T02:22:41.897Z,20.52
2023-03-27T02:23:41.896Z,20.62
2023-03-27T02:24:41.871Z,20.41
2023-03-27T02:25:41.861Z,21.05
2023-03-27T02:26:41.871Z,20.52
2023-03-27T02:27:41.831Z,20.95
2023-03-27T02:28:41.826Z,20.95
2023-03-27T02:29:41.806Z,20.46
2023-03-27T02:30:41.790Z,20.57
2023-03-27T02:31:41.840Z,21.11
2023-03-27T02:32:41.878Z,21.22
2023-03-27T02:33:41.743Z,21.32
2023-03-27T02:34:41.737Z,21.32
2023-03-27T02:35:41.730Z,21.27
2023-03-27T02:36:41.710Z,21.00
2023-03-27T02:37:41.689Z,20.95
2023-03-27T02:38:41.686Z,21.32
2023-03-27T02:39:41.870Z,21.11
2023-03-27T02:40:41.655Z,21.27
2023-03-27T02:41:41.886Z,20.89
2023-03-27T02:42:41.649Z,21.32
2023-03-27T02:43:42.011Z,21.38
2023-03-27T02:44:46.342Z,21.00
2023-03-27T02:45:42.617Z,21.00
2023-03-27T02:46:41.578Z,20.52
2023-03-27T02:47:41.576Z,21.32
2023-03-27T02:48:41.545Z,21.00
2023-03-27T02:49:41.536Z,20.95
2023-03-27T02:50:41.525Z,21.75
2023-03-27T02:51:41.529Z,20.95
2023-03-27T02:52:41.798Z,20.95
2023-03-27T02:53:41.490Z,21.65
2023-03-27T02:54:41.474Z,21.32
2023-03-27T02:55:41.457Z,20.95
2023-03-27T02:56:41.468Z,20.89
2023-03-27T02:57:41.426Z,21.38
2023-03-27T02:58:42.527Z,21.32
2023-03-27T02:59:41.397Z,21.32
2023-03-27T03:00:41.391Z,20.89
2023-03-27T03:01:41.413Z,20.95
2023-03-27T03:02:41.427Z,20.89
2023-03-27T03:03:41.345Z,20.95
2023-03-27T03:04:41.341Z,21.32
2023-03-27T03:05:41.364Z,21.05
2023-03-27T03:06:41.311Z,20.95
2023-03-27T03:07:41.299Z,21.05
2023-03-27T03:08:41.283Z,21.32
2023-03-27T03:09:41.366Z,20.95
2023-03-27T03:10:41.257Z,20.89
2023-03-27T03:11:41.243Z,21.38
2023-03-27T03:12:41.225Z,21.05
2023-03-27T03:13:41.228Z,21.91
2023-03-27T03:14:41.229Z,21.00
2023-03-27T03:15:41.192Z,21.00
2023-03-27T03:16:41.237Z,21.00
2023-03-27T03:17:41.180Z,20.95
2023-03-27T03:18:41.142Z,21.05
2023-03-27T03:19:41.132Z,21.38
2023-03-27T03:20:41.122Z,21.00
2023-03-27T03:21:41.102Z,21.05
2023-03-27T03:22:41.095Z,21.05
2023-03-27T03:23:41.072Z,21.32
2023-03-27T03:24:41.070Z,21.32
2023-03-27T03:25:41.054Z,21.32
2023-03-27T03:26:41.040Z,21.54
2023-03-27T03:27:41.024Z,21.32
2023-03-27T03:28:41.018Z,20.95
2023-03-27T03:29:42.028Z,21.38
2023-03-27T03:30:41.054Z,21.27
2023-03-27T03:31:40.969Z,21.27
2023-03-27T03:32:41.003Z,21.48
2023-03-27T03:33:40.947Z,21.65
2023-03-27T03:34:40.932Z,21.32
2023-03-27T03:35:40.926Z,21.32
2023-03-27T03:36:40.902Z,21.32
2023-03-27T03:37:40.891Z,21.27
2023-03-27T03:38:40.875Z,21.38
2023-03-27T03:39:40.889Z,21.00
2023-03-27T03:40:40.849Z,21.38
2023-03-27T03:41:40.848Z,21.27
2023-03-27T03:42:40.825Z,21.27
2023-03-27T03:43:40.813Z,21.32
2023-03-27T03:44:40.793Z,21.43
2023-03-27T03:45:40.788Z,21.32
2023-03-27T03:46:40.885Z,21.32
2023-03-27T03:47:40.796Z,21.32
2023-03-27T03:48:40.744Z,21.43
2023-03-27T03:49:40.735Z,21.43
2023-03-27T03:50:40.918Z,21.43
2023-03-27T03:51:40.711Z,21.32
2023-03-27T03:52:40.689Z,21.32
2023-03-27T03:53:40.678Z,21.27
2023-03-27T03:54:40.661Z,21.27
2023-03-27T03:55:40.647Z,21.32
2023-03-27T03:56:40.661Z,21.43
2023-03-27T03:57:40.612Z,21.32
2023-03-27T03:58:40.603Z,21.27
2023-03-27T03:59:40.597Z,21.27
2023-03-27T04:00:40.584Z,20.95
2023-03-27T04:01:40.591Z,21.38
2023-03-27T04:02:40.687Z,21.38
2023-03-27T04:03:40.629Z,21.32
2023-03-27T04:04:40.525Z,21.43
2023-03-27T04:05:40.509Z,21.38
2023-03-27T04:06:40.497Z,21.38
2023-03-27T04:07:40.634Z,21.32
2023-03-27T04:08:40.468Z,21.38
2023-03-27T04:09:40.459Z,21.38
2023-03-27T04:10:40.444Z,21.32
2023-03-27T04:11:40.426Z,21.38
2023-03-27T04:12:40.410Z,21.27
2023-03-27T04:13:40.406Z,21.38
2023-03-27T04:14:40.386Z,21.43
2023-03-27T04:15:40.418Z,21.32
2023-03-27T04:16:40.360Z,21.32
2023-03-27T04:17:40.444Z,21.38
2023-03-27T04:18:40.427Z,21.48
2023-03-27T04:19:40.318Z,21.32
2023-03-27T04:20:40.297Z,20.95
2023-03-27T04:21:40.288Z,21.32
2023-03-27T04:22:40.422Z,21.27
2023-03-27T04:23:40.258Z,21.48
2023-03-27T04:24:40.250Z,21.81
2023-03-27T04:25:40.303Z,21.38
2023-03-27T04:26:40.215Z,21.32
2023-03-27T04:27:40.204Z,21.38
2023-03-27T04:28:40.196Z,21.38
2023-03-27T04:29:40.182Z,21.32
2023-03-27T04:30:40.169Z,21.27
2023-03-27T04:31:40.207Z,21.32
2023-03-27T04:32:40.182Z,20.95
2023-03-27T04:33:40.130Z,21.32
2023-03-27T04:34:40.137Z,21.48
2023-03-27T04:35:40.167Z,21.43
2023-03-27T04:36:40.083Z,21.38
2023-03-27T04:37:40.076Z,21.65
2023-03-27T04:38:40.070Z,20.89
2023-03-27T04:39:40.054Z,21.38
2023-03-27T04:40:40.036Z,21.38
2023-03-27T04:41:40.017Z,21.70
2023-03-27T04:42:40.008Z,21.48
2023-03-27T04:43:39.998Z,21.32
2023-03-27T04:44:39.978Z,21.59
2023-03-27T04:45:39.971Z,21.27
2023-03-27T04:46:39.967Z,21.27
2023-03-27T04:47:39.990Z,21.27
2023-03-27T04:48:39.951Z,21.38
2023-03-27T04:49:39.910Z,21.48
2023-03-27T04:50:39.916Z,21.22
2023-03-27T04:51:39.888Z,20.89
2023-03-27T04:52:39.868Z,21.32
2023-03-27T04:53:39.871Z,21.38
2023-03-27T04:54:39.993Z,20.95
2023-03-27T04:55:39.829Z,21.32
2023-03-27T04:56:39.818Z,21.32
2023-03-27T04:57:39.828Z,20.89
2023-03-27T04:58:39.795Z,21.48
2023-03-27T04:59:39.778Z,21.38
2023-03-27T05:00:39.754Z,21.43
2023-03-27T05:01:39.785Z,21.32
2023-03-27T05:02:39.766Z,21.38
2023-03-27T05:03:39.749Z,21.32
2023-03-27T05:04:39.706Z,20.95
2023-03-27T05:05:39.691Z,21.43
2023-03-27T05:06:40.642Z,21.38
2023-03-27T05:07:39.663Z,21.48
2023-03-27T05:08:39.648Z,20.89
2023-03-27T05:09:39.643Z,21.27
2023-03-27T05:10:39.628Z,21.00
2023-03-27T05:11:39.626Z,21.48
2023-03-27T05:12:39.592Z,21.32
2023-03-27T05:13:39.590Z,21.27
2023-03-27T05:14:39.568Z,21.27
2023-03-27T05:15:39.560Z,20.95
2023-03-27T05:16:39.576Z,20.95
2023-03-27T05:17:39.616Z,20.89
2023-03-27T05:18:41.794Z,21.38
2023-03-27T05:19:39.506Z,21.81
2023-03-27T05:20:39.482Z,21.11
2023-03-27T05:21:39.550Z,21.32
2023-03-27T05:22:39.482Z,21.59
2023-03-27T05:23:39.457Z,21.32
2023-03-27T05:24:39.434Z,20.89
2023-03-27T05:25:39.447Z,20.95
2023-03-27T05:26:39.408Z,20.95
2023-03-27T05:27:39.395Z,21.27
2023-03-27T05:28:39.389Z,21.16
2023-03-27T05:29:46.835Z,21.32
2023-03-27T05:30:40.441Z,20.95
2023-03-27T05:31:39.347Z,21.00
2023-03-27T05:32:39.366Z,20.95
2023-03-27T05:33:39.318Z,21.32
2023-03-27T05:34:39.302Z,21.32
2023-03-27T05:35:39.317Z,20.95
2023-03-27T05:36:39.284Z,20.89
2023-03-27T05:37:39.274Z,21.32
2023-03-27T05:38:39.505Z,20.95
2023-03-27T05:39:39.248Z,21.11
2023-03-27T05:40:39.223Z,20.89
2023-03-27T05:41:39.206Z,21.11
2023-03-27T05:42:39.192Z,20.89
2023-03-27T05:43:39.524Z,21.38
2023-03-27T05:44:39.171Z,21.32
2023-03-27T05:45:39.161Z,20.95
2023-03-27T05:46:39.167Z,21.22
2023-03-27T05:47:39.160Z,21.11
2023-03-27T05:48:39.125Z,21.32
2023-03-27T05:49:39.102Z,20.89
2023-03-27T05:50:39.092Z,21.00
2023-03-27T05:51:39.087Z,21.00
2023-03-27T05:52:40.086Z,21.38
2023-03-27T05:53:39.053Z,20.89
2023-03-27T05:54:39.078Z,20.95
2023-03-27T05:55:39.028Z,20.95
2023-03-27T05:56:39.064Z,20.89
2023-03-27T05:57:39.002Z,21.32
2023-03-27T05:58:38.993Z,21.32
2023-03-27T05:59:38.974Z,20.89
2023-03-27T06:00:38.965Z,20.95
2023-03-27T06:01:38.944Z,20.95
2023-03-27T06:02:39.049Z,20.95
2023-03-27T06:03:39.185Z,20.95
2023-03-27T06:04:38.942Z,21.59
2023-03-27T06:05:38.891Z,21.27
2023-03-27T06:06:38.879Z,21.05
2023-03-27T06:07:40.857Z,21.05
2023-03-27T06:08:38.879Z,21.32
2023-03-27T06:09:38.842Z,21.05
2023-03-27T06:10:39.157Z,20.95
2023-03-27T06:11:38.924Z,20.89
2023-03-27T06:12:38.807Z,21.00
2023-03-27T06:13:38.795Z,20.89
2023-03-27T06:14:38.781Z,21.32
2023-03-27T06:15:38.784Z,20.95
2023-03-27T06:16:38.754Z,21.48
2023-03-27T06:17:38.735Z,20.95
2023-03-27T06:18:38.749Z,21.22
2023-03-27T06:19:38.718Z,21.00
2023-03-27T06:20:38.697Z,20.73
2023-03-27T06:21:40.948Z,20.95
2023-03-27T06:22:38.677Z,20.95
2023-03-27T06:23:38.663Z,20.89
2023-03-27T06:24:38.661Z,21.00
2023-03-27T06:25:38.638Z,21.32
2023-03-27T06:26:38.640Z,20.89
2023-03-27T06:27:38.602Z,20.95
2023-03-27T06:28:38.595Z,21.27
2023-03-27T06:29:38.583Z,21.38
2023-03-27T06:30:38.565Z,21.65
2023-03-27T06:31:38.567Z,21.05
2023-03-27T06:32:38.564Z,21.48
2023-03-27T06:33:38.540Z,20.89
2023-03-27T06:34:38.526Z,21.32
2023-03-27T06:35:38.523Z,20.95
2023-03-27T06:36:38.487Z,21.38
2023-03-27T06:37:38.469Z,21.38
2023-03-27T06:38:38.468Z,20.84
2023-03-27T06:39:38.441Z,21.00
2023-03-27T06:40:38.434Z,21.00
2023-03-27T06:41:38.519Z,20.95
2023-03-27T06:42:38.436Z,20.95
2023-03-27T06:43:38.389Z,20.95
2023-03-27T06:44:38.372Z,20.95
2023-03-27T06:45:38.358Z,20.95
2023-03-27T06:46:45.148Z,20.95
2023-03-27T06:47:51.701Z,20.89
2023-03-27T06:48:39.402Z,20.95
2023-03-27T06:49:38.307Z,20.89
2023-03-27T06:50:38.293Z,20.89
2023-03-27T06:51:38.296Z,21.00
2023-03-27T06:52:38.288Z,20.95
2023-03-27T06:53:38.379Z,21.00
2023-03-27T06:54:38.235Z,20.95
2023-03-27T06:55:38.223Z,20.89
2023-03-27T06:56:38.231Z,21.00
2023-03-27T06:57:38.324Z,20.95
2023-03-27T06:58:38.212Z,21.11
2023-03-27T06:59:38.203Z,21.00
2023-03-27T07:00:38.397Z,20.89
2023-03-27T07:01:38.157Z,20.95
2023-03-27T07:02:38.193Z,20.84
2023-03-27T07:03:38.109Z,21.16
2023-03-27T07:04:38.108Z,21.00
2023-03-27T07:05:38.135Z,20.95
2023-03-27T07:06:39.640Z,21.05
2023-03-27T07:07:40.319Z,20.89
2023-03-27T07:08:38.045Z,21.05
2023-03-27T07:09:40.043Z,20.89
2023-03-27T07:10:38.012Z,20.95
2023-03-27T07:11:38.000Z,20.95
2023-03-27T07:12:37.990Z,20.95
2023-03-27T07:13:37.973Z,21.05
2023-03-27T07:14:37.985Z,21.05
2023-03-27T07:15:37.946Z,20.95
2023-03-27T07:16:38.231Z,21.11
2023-03-27T07:17:48.123Z,21.11
2023-03-27T07:18:38.929Z,21.05
2023-03-27T07:19:37.889Z,20.89
2023-03-27T07:20:37.873Z,20.89
2023-03-27T07:21:37.860Z,21.00
2023-03-27T07:22:37.847Z,20.95
2023-03-27T07:23:37.833Z,20.68
2023-03-27T07:24:37.820Z,21.11
2023-03-27T07:25:37.818Z,21.11
2023-03-27T07:26:37.800Z,20.89
2023-03-27T07:27:37.780Z,20.89
2023-03-27T07:28:37.771Z,20.89
2023-03-27T07:29:37.792Z,20.95
2023-03-27T07:30:37.770Z,20.95
2023-03-27T07:32:38.169Z,20.89
2023-03-27T07:33:37.741Z,20.89
2023-03-27T07:34:37.687Z,20.89
2023-03-27T07:35:37.683Z,20.84
2023-03-27T07:36:37.672Z,20.95
2023-03-27T07:37:38.217Z,20.95
2023-03-27T07:38:37.629Z,20.89
2023-03-27T07:39:37.632Z,20.95
2023-03-27T07:40:40.349Z,21.16
2023-03-27T07:41:37.583Z,20.95
2023-03-27T07:42:37.571Z,20.89
2023-03-27T07:43:37.560Z,21.00
2023-03-27T07:44:37.547Z,20.89
2023-03-27T07:45:37.576Z,20.95
2023-03-27T07:46:37.543Z,20.95
2023-03-27T07:47:37.525Z,20.68
2023-03-27T07:48:37.498Z,21.00
2023-03-27T07:49:38.832Z,20.89
2023-03-27T07:50:37.491Z,20.89
2023-03-27T07:51:37.454Z,21.16
2023-03-27T07:52:37.438Z,20.89
2023-03-27T07:53:37.429Z,21.05
2023-03-27T07:54:37.415Z,20.95
2023-03-27T07:55:37.401Z,21.00
2023-03-27T07:56:37.479Z,20.95
2023-03-27T07:57:46.431Z,21.16
2023-03-27T07:58:38.413Z,20.84
2023-03-27T07:59:37.350Z,20.95
2023-03-27T08:00:37.333Z,20.95
2023-03-27T08:01:37.316Z,21.05
2023-03-27T08:02:37.364Z,21.00
2023-03-27T08:03:37.514Z,21.38
2023-03-27T08:04:37.371Z,21.00
2023-03-27T08:05:37.278Z,20.95
2023-03-27T08:06:37.254Z,20.95
2023-03-27T08:07:37.245Z,21.11
2023-03-27T08:08:37.224Z,20.95
2023-03-27T08:09:37.212Z,20.95
2023-03-27T08:10:37.197Z,21.05
2023-03-27T08:11:37.183Z,21.27
2023-03-27T08:12:37.170Z,20.95
2023-03-27T08:13:37.157Z,21.00
2023-03-27T08:14:37.149Z,20.89
2023-03-27T08:15:37.124Z,21.00
2023-03-27T08:16:37.162Z,20.89
2023-03-27T08:17:37.219Z,21.00
2023-03-27T08:18:37.107Z,20.68
2023-03-27T08:19:37.073Z,20.89
2023-03-27T08:20:37.066Z,21.11
2023-03-27T08:21:37.048Z,20.95
2023-03-27T08:22:37.050Z,20.95
2023-03-27T08:23:37.025Z,20.95
2023-03-27T08:24:37.012Z,21.05
2023-03-27T08:25:37.262Z,20.95
2023-03-27T08:26:36.993Z,21.05
2023-03-27T08:27:36.979Z,20.89
2023-03-27T08:28:36.952Z,20.57
2023-03-27T08:29:36.946Z,21.00
2023-03-27T08:30:36.949Z,20.57
2023-03-27T08:31:36.912Z,21.11
2023-03-27T08:32:36.962Z,20.89
2023-03-27T08:33:36.884Z,20.95
2023-03-27T08:34:36.896Z,20.95
2023-03-27T08:35:36.906Z,20.89
2023-03-27T08:36:36.839Z,20.84
2023-03-27T08:37:36.825Z,20.95
2023-03-27T08:38:36.812Z,21.11
2023-03-27T08:39:36.798Z,20.79
2023-03-27T08:40:36.792Z,21.00
2023-03-27T08:41:36.772Z,20.57
2023-03-27T08:42:36.853Z,21.00
2023-03-27T08:43:36.743Z,20.95
2023-03-27T08:44:36.787Z,20.95
2023-03-27T08:45:36.730Z,20.52
2023-03-27T08:46:36.749Z,20.79
2023-03-27T08:47:37.162Z,20.95
2023-03-27T08:48:36.680Z,21.11
2023-03-27T08:49:36.668Z,21.16
2023-03-27T08:50:36.684Z,20.52
2023-03-27T08:51:36.639Z,20.95
2023-03-27T08:52:36.664Z,20.95
2023-03-27T08:53:36.611Z,20.95
2023-03-27T08:54:36.602Z,20.57
2023-03-27T08:55:36.587Z,20.95
2023-03-27T08:56:36.632Z,20.57
2023-03-27T08:57:36.558Z,20.62
2023-03-27T08:58:36.849Z,20.57
2023-03-27T08:59:36.536Z,20.41
2023-03-27T09:00:36.526Z,20.57
2023-03-27T09:01:36.611Z,20.57
2023-03-27T09:02:36.782Z,20.57
2023-03-27T09:03:36.531Z,20.57
2023-03-27T09:04:37.688Z,20.41
2023-03-27T09:05:36.453Z,20.57
2023-03-27T09:06:36.471Z,20.68
2023-03-27T09:07:36.466Z,20.62
2023-03-27T09:08:36.411Z,20.57
2023-03-27T09:09:36.421Z,20.68
2023-03-27T09:10:36.385Z,20.62
2023-03-27T09:11:36.369Z,20.62
2023-03-27T09:12:38.406Z,20.46
2023-03-27T09:13:36.344Z,20.57
2023-03-27T09:14:36.324Z,20.62
2023-03-27T09:15:36.307Z,20.14
2023-03-27T09:16:36.337Z,20.57
2023-03-27T09:17:36.327Z,20.62
2023-03-27T09:18:36.269Z,20.46
2023-03-27T09:19:36.261Z,20.57
2023-03-27T09:20:36.241Z,20.57
2023-03-27T09:21:36.229Z,20.62
2023-03-27T09:22:36.237Z,20.73
2023-03-27T09:23:36.202Z,20.20
2023-03-27T09:24:36.192Z,20.20
2023-03-27T09:25:36.174Z,20.52
2023-03-27T09:26:36.166Z,20.57
2023-03-27T09:27:36.152Z,20.57
2023-03-27T09:28:36.135Z,20.68
2023-03-27T09:29:36.124Z,20.57
2023-03-27T09:30:36.329Z,20.68
2023-03-27T09:31:36.154Z,20.57
2023-03-27T09:32:36.101Z,20.57
2023-03-27T09:33:36.073Z,20.62
2023-03-27T09:34:36.058Z,20.20
2023-03-27T09:35:36.071Z,20.52
2023-03-27T09:36:36.045Z,20.09
2023-03-27T09:37:37.059Z,20.57
2023-03-27T09:38:36.025Z,20.57
2023-03-27T09:39:35.982Z,20.25
2023-03-27T09:40:35.969Z,20.89
2023-03-27T09:41:35.960Z,20.46
2023-03-27T09:42:35.940Z,20.36
2023-03-27T09:43:35.942Z,20.03
2023-03-27T09:44:35.915Z,20.46
2023-03-27T09:45:35.900Z,20.36
2023-03-27T09:46:35.934Z,20.46
2023-03-27T09:47:35.937Z,20.20
2023-03-27T09:48:35.881Z,20.57
2023-03-27T09:49:35.854Z,20.62
2023-03-27T09:50:35.849Z,20.25
2023-03-27T09:51:35.828Z,20.20
2023-03-27T09:52:35.826Z,20.41
2023-03-27T09:53:35.953Z,20.68
2023-03-27T09:54:35.808Z,20.30
2023-03-27T09:55:35.774Z,20.20
2023-03-27T09:56:35.778Z,20.25
2023-03-27T09:57:35.751Z,20.14
2023-03-27T09:58:35.727Z,20.25
2023-03-27T09:59:35.731Z,20.14
2023-03-27T10:00:35.737Z,20.25
2023-03-27T10:01:35.932Z,20.14
2023-03-27T10:02:35.703Z,20.14
2023-03-27T10:03:35.717Z,20.57
2023-03-27T10:04:35.678Z,20.30
2023-03-27T10:05:35.643Z,20.25
2023-03-27T10:06:35.636Z,20.20
2023-03-27T10:07:35.604Z,20.20
2023-03-27T10:08:35.602Z,20.09
2023-03-27T10:09:35.584Z,20.25
2023-03-27T10:10:35.595Z,20.09
2023-03-27T10:11:35.563Z,20.09
2023-03-27T10:12:35.547Z,20.14
2023-03-27T10:13:35.534Z,20.14
2023-03-27T10:14:35.524Z,20.14
2023-03-27T10:15:35.498Z,20.14
2023-03-27T10:16:35.535Z,20.14
2023-03-27T10:17:35.516Z,20.14
2023-03-27T10:18:35.480Z,20.25
2023-03-27T10:19:35.454Z,20.20
2023-03-27T10:20:35.438Z,20.25
2023-03-27T10:21:35.433Z,20.20
2023-03-27T10:22:35.405Z,20.14
2023-03-27T10:23:35.419Z,20.14
2023-03-27T10:24:35.381Z,20.25
2023-03-27T10:25:35.370Z,20.62
2023-03-27T10:26:35.398Z,20.14
2023-03-27T10:27:35.342Z,20.46
2023-03-27T10:28:35.327Z,20.20
2023-03-27T10:29:35.322Z,20.20
2023-03-27T10:30:35.304Z,20.20
2023-03-27T10:31:35.305Z,19.87
2023-03-27T10:32:35.469Z,19.71
2023-03-27T10:33:35.271Z,20.20
2023-03-27T10:34:35.251Z,20.14
2023-03-27T10:35:36.750Z,20.20
2023-03-27T10:36:35.225Z,20.09
2023-03-27T10:37:35.370Z,20.14
2023-03-27T10:38:35.198Z,20.14
2023-03-27T10:39:35.176Z,20.30
2023-03-27T10:40:35.170Z,20.14
2023-03-27T10:41:35.150Z,19.77
2023-03-27T10:42:35.168Z,20.14
2023-03-27T10:43:35.127Z,19.77
2023-03-27T10:44:35.119Z,20.20
2023-03-27T10:45:35.099Z,19.77
2023-03-27T10:46:35.165Z,19.87
2023-03-27T10:47:35.111Z,20.14
2023-03-27T10:48:35.060Z,19.87
2023-03-27T10:49:35.041Z,19.77
2023-03-27T10:50:35.032Z,19.82
2023-03-27T10:51:45.469Z,19.82
2023-03-27T10:52:36.033Z,20.57
2023-03-27T10:53:35.086Z,19.66
2023-03-27T10:54:35.042Z,19.77
2023-03-27T10:55:34.970Z,19.82
2023-03-27T10:56:34.976Z,19.82
2023-03-27T10:57:34.934Z,19.82
2023-03-27T10:58:34.951Z,19.71
2023-03-27T10:59:41.543Z,19.93
2023-03-27T11:00:35.915Z,19.93
2023-03-27T11:01:34.930Z,19.77
2023-03-27T11:02:34.893Z,19.77
2023-03-27T11:03:34.892Z,19.77
2023-03-27T11:04:34.835Z,19.71
2023-03-27T11:05:34.860Z,20.36
2023-03-27T11:06:34.829Z,20.14
2023-03-27T11:07:34.801Z,19.93
2023-03-27T11:08:34.795Z,19.77
2023-03-27T11:09:34.774Z,20.25
2023-03-27T11:10:34.753Z,20.20
2023-03-27T11:11:34.765Z,19.77
2023-03-27T11:12:34.728Z,20.14
2023-03-27T11:13:34.722Z,19.77
2023-03-27T11:14:34.718Z,19.77
2023-03-27T11:15:34.686Z,19.71
2023-03-27T11:16:34.698Z,19.77
2023-03-27T11:17:34.661Z,19.82
2023-03-27T11:18:34.653Z,19.82
2023-03-27T11:19:34.701Z,19.93
2023-03-27T11:20:34.729Z,20.20
2023-03-27T11:21:34.752Z,19.71
2023-03-27T11:22:34.668Z,19.77
2023-03-27T11:23:34.574Z,19.55
2023-03-27T11:24:34.588Z,19.77
2023-03-27T11:25:34.541Z,19.77
2023-03-27T11:26:34.536Z,19.82
2023-03-27T11:27:34.523Z,19.60
2023-03-27T11:28:34.515Z,20.14
2023-03-27T11:29:35.131Z,19.77
2023-03-27T11:30:34.638Z,20.14
2023-03-27T11:31:34.699Z,19.77
2023-03-27T11:32:34.467Z,20.20
2023-03-27T11:33:34.441Z,20.14
2023-03-27T11:34:34.439Z,19.77
2023-03-27T11:35:34.464Z,19.77
2023-03-27T11:36:34.409Z,19.77
2023-03-27T11:37:34.510Z,19.87
2023-03-27T11:38:34.454Z,19.87
2023-03-27T11:39:34.447Z,19.93
2023-03-27T11:40:34.353Z,19.93
2023-03-27T11:41:34.381Z,19.66
2023-03-27T11:42:34.318Z,20.30
2023-03-27T11:43:34.297Z,19.77
2023-03-27T11:44:34.289Z,19.71
2023-03-27T11:45:34.279Z,19.77
2023-03-27T11:46:34.362Z,19.77
2023-03-27T11:47:34.260Z,19.82
2023-03-27T11:48:34.237Z,19.98
2023-03-27T11:49:34.235Z,19.77
2023-03-27T11:50:34.219Z,19.82
2023-03-27T11:51:34.200Z,19.60
2023-03-27T11:52:34.184Z,20.14
2023-03-27T11:53:34.169Z,20.03
2023-03-27T11:54:34.155Z,19.82
2023-03-27T11:55:34.156Z,19.77
2023-03-27T11:56:34.332Z,20.09
2023-03-27T11:57:34.299Z,20.14
2023-03-27T11:58:34.106Z,20.25
2023-03-27T11:59:34.086Z,19.82
2023-03-27T12:00:34.077Z,20.14
2023-03-27T12:01:34.061Z,19.77
2023-03-27T12:02:34.256Z,20.14
2023-03-27T12:03:34.104Z,20.20
2023-03-27T12:04:34.018Z,20.14
2023-03-27T12:05:34.006Z,20.30
2023-03-27T12:06:33.995Z,20.14
2023-03-27T12:07:36.455Z,20.14
2023-03-27T12:08:33.963Z,20.09
2023-03-27T12:09:33.944Z,20.14
2023-03-27T12:10:33.933Z,19.93
2023-03-27T12:11:33.932Z,20.14
2023-03-27T12:12:33.916Z,19.98
2023-03-27T12:13:41.136Z,20.20
2023-03-27T12:14:40.555Z,20.25
2023-03-27T12:15:34.901Z,20.14
2023-03-27T12:16:33.895Z,20.20
2023-03-27T12:17:33.879Z,20.20
2023-03-27T12:18:36.363Z,20.14
2023-03-27T12:20:33.810Z,20.14
2023-03-27T12:21:33.942Z,20.20
2023-03-27T12:22:33.781Z,19.77
2023-03-27T12:23:34.013Z,20.20
2023-03-27T12:24:33.752Z,20.30
2023-03-27T12:25:36.073Z,19.82
2023-03-27T12:26:33.727Z,19.77
2023-03-27T12:27:33.706Z,19.71
2023-03-27T12:28:33.902Z,20.14
2023-03-27T12:29:33.704Z,20.14
2023-03-27T12:30:33.817Z,20.20
2023-03-27T12:31:33.874Z,20.25
2023-03-27T12:32:33.847Z,20.20
2023-03-27T12:33:33.628Z,20.25
2023-03-27T12:34:33.720Z,20.14
2023-03-27T12:35:33.624Z,19.82
2023-03-27T12:36:33.595Z,19.71
2023-03-27T12:37:33.567Z,20.03
2023-03-27T12:38:33.609Z,20.52
2023-03-27T12:39:33.541Z,20.20
2023-03-27T12:40:33.532Z,19.87
2023-03-27T12:41:33.539Z,19.98
2023-03-27T12:42:33.518Z,19.71
2023-03-27T12:43:34.518Z,20.30
2023-03-27T12:44:33.475Z,19.77
2023-03-27T12:45:38.752Z,19.77
2023-03-27T12:46:34.515Z,19.82
2023-03-27T12:47:33.467Z,20.14
2023-03-27T12:48:33.425Z,19.93
2023-03-27T12:49:46.326Z,19.77
2023-03-27T12:50:34.454Z,19.82
2023-03-27T12:51:33.383Z,20.20
2023-03-27T12:52:33.367Z,19.82
2023-03-27T12:53:33.354Z,19.82
2023-03-27T12:54:33.342Z,19.71